Station Historical Data
Daily Summary for August 9, 2017 Units:  English    Metric   Both
« Previous Day
Next Day »
Daily Weekly Monthly Yearly Custom
  High: Low: Average:
Temperature: 74.4 °F 69.6 °F 71.5 °F
Dew Point: 70.0 °F 67.2 °F 68.7 °F
Humidity: 94% 84% 91%
Wind Speed: 1.0mph 0.0mph 0mph
Wind Gust: 3.0mph - -
Wind- - West
Pressure: 30.19 in 30.06 in -
Precipitation: 0.47 in    
Historical Graphs
 
 
Tabular Data for August 9, 2017
Time Temperature Dew Point Pressure Wind Wind Speed Wind Gust Humidity Rainfall Rate (Hourly) Conditions
00:00 72.1 °F 69.7 °F 30.07 in Calm     92% 0.00 in RA
00:05 72.1 °F 70.0 °F 30.07 in Calm     93% 0.00 in BKN
00:10 72.0 °F 69.9 °F 30.07 in Calm     93% 0.00 in BKN
00:15 72.0 °F 69.9 °F 30.07 in Calm     93% 0.00 in BKN
00:20 72.0 °F 69.9 °F 30.07 in Calm     93% 0.00 in BKN
00:25 71.9 °F 69.8 °F 30.07 in Calm     93% 0.00 in BKN
00:30 71.9 °F 69.8 °F 30.07 in Calm     93% 0.00 in BKN
00:35 71.9 °F 69.8 °F 30.07 in Calm     93% 0.00 in BKN
00:40 71.8 °F 69.7 °F 30.07 in Calm     93% 0.00 in BKN
00:45 71.7 °F 69.6 °F 30.07 in Calm     93% 0.00 in BKN
00:50 71.7 °F 69.6 °F 30.07 in Calm     93% 0.00 in -RA
00:55 71.6 °F 69.5 °F 30.07 in Calm     93% 0.00 in -RA
01:00 71.5 °F 69.4 °F 30.07 in Calm     93% 0.00 in -RA
01:05 71.5 °F 69.4 °F 30.07 in Calm     93% 0.00 in BKN
01:10 71.4 °F 69.3 °F 30.07 in Calm     93% 0.00 in BKN
01:15 71.4 °F 69.2 °F 30.07 in Calm     93% 0.00 in BKN
01:20 71.3 °F 69.2 °F 30.06 in Calm     93% 0.00 in FEW
01:25 71.2 °F 69.1 °F 30.06 in Calm     93% 0.00 in FEW
01:30 71.2 °F 69.1 °F 30.07 in Calm     93% 0.00 in FEW
01:40 71.0 °F 68.9 °F 30.06 in Calm     93% 0.00 in FEW
01:45 70.9 °F 68.8 °F 30.07 in Calm     93% 0.00 in FEW
01:50 70.9 °F 68.8 °F 30.06 in Calm     93% 0.00 in FEW
01:55 70.9 °F 68.8 °F 30.06 in Calm     93% 0.00 in FEW
02:00 70.8 °F 68.7 °F 30.06 in Calm     93% 0.00 in FEW
02:05 70.8 °F 68.7 °F 30.06 in Calm     93% 0.00 in FEW
02:10 70.8 °F 68.7 °F 30.07 in Calm     93% 0.00 in FEW
02:15 70.8 °F 68.7 °F 30.07 in Calm     93% 0.00 in FEW
02:20 70.7 °F 68.6 °F 30.07 in Calm     93% 0.00 in SCT
02:25 70.8 °F 68.7 °F 30.06 in Calm     93% 0.00 in SCT
02:35 70.8 °F 68.7 °F 30.07 in Calm     93% 0.00 in SCT
02:40 70.8 °F 68.7 °F 30.07 in Calm     93% 0.00 in SCT
02:45 70.8 °F 68.7 °F 30.07 in Calm     93% 0.00 in SCT
02:50 70.9 °F 69.1 °F 30.07 in Calm     94% 0.00 in SCT
02:55 71.0 °F 69.2 °F 30.07 in Calm     94% 0.00 in SCT
03:00 71.0 °F 69.2 °F 30.07 in Calm     94% 0.00 in SCT
03:05 71.0 °F 69.2 °F 30.07 in Calm     94% 0.00 in SCT
03:10 71.0 °F 69.2 °F 30.07 in Calm     94% 0.00 in SCT
03:15 71.1 °F 69.3 °F 30.07 in Calm     94% 0.00 in SCT
03:20 71.1 °F 69.3 °F 30.07 in Calm     94% 0.00 in BKN
03:25 71.1 °F 69.3 °F 30.07 in Calm     94% 0.00 in BKN
03:30 71.1 °F 69.3 °F 30.08 in Calm     94% 0.00 in BKN
03:40 71.2 °F 69.4 °F 30.08 in Calm     94% 0.00 in BKN
03:45 71.2 °F 69.4 °F 30.08 in Calm     94% 0.00 in BKN
03:50 71.2 °F 69.4 °F 30.08 in Calm     94% 0.00 in BKN
03:55 71.1 °F 69.3 °F 30.08 in Calm     94% 0.00 in BKN
04:00 71.1 °F 69.3 °F 30.08 in Calm     94% 0.00 in BKN
04:05 71.1 °F 69.3 °F 30.08 in Calm     94% 0.00 in BKN
04:15 71.1 °F 69.3 °F 30.08 in Calm     94% 0.00 in BKN
04:25 71.0 °F 69.2 °F 30.08 in Calm     94% 0.00 in OVC
04:30 70.9 °F 69.1 °F 30.08 in Calm     94% 0.00 in OVC
04:35 70.9 °F 69.1 °F 30.08 in Calm     94% 0.00 in OVC
04:40 70.9 °F 69.1 °F 30.08 in Calm     94% 0.00 in OVC
04:45 70.8 °F 69.0 °F 30.08 in Calm     94% 0.00 in OVC
04:50 70.8 °F 69.0 °F 30.08 in Calm     94% 0.00 in OVC
04:55 70.7 °F 68.9 °F 30.08 in Calm     94% 0.00 in OVC
05:00 70.7 °F 68.9 °F 30.08 in Calm     94% 0.00 in OVC
05:05 70.7 °F 68.9 °F 30.08 in Calm     94% 0.00 in OVC
05:10 70.7 °F 68.9 °F 30.08 in Calm     94% 0.00 in OVC
05:15 70.7 °F 68.9 °F 30.08 in Calm     94% 0.00 in OVC
05:20 70.7 °F 68.9 °F 30.08 in Calm     94% 0.00 in OVC
05:25 70.7 °F 68.9 °F 30.08 in Calm     94% 0.00 in OVC
05:30 70.7 °F 68.9 °F 30.08 in Calm     94% 0.00 in BKN
05:35 70.7 °F 68.9 °F 30.09 in Calm     94% 0.00 in BKN
05:40 70.6 °F 68.8 °F 30.08 in Calm     94% 0.00 in BKN
05:45 70.6 °F 68.8 °F 30.09 in Calm     94% 0.00 in BKN
05:50 70.5 °F 68.4 °F 30.09 in Calm     93% 0.00 in -DZ
05:55 70.5 °F 68.4 °F 30.09 in Calm     93% 0.00 in -DZ
06:00 70.5 °F 68.7 °F 30.09 in Calm     94% 0.00 in -DZ
06:05 70.5 °F 68.4 °F 30.09 in Calm     93% 0.00 in -DZ
06:10 70.5 °F 68.4 °F 30.09 in Calm     93% 0.00 in -DZ
06:15 70.5 °F 68.4 °F 30.09 in Calm     93% 0.00 in -DZ
06:20 70.6 °F 68.5 °F 30.10 in Calm     93% 0.00 in -RA
06:25 70.6 °F 68.5 °F 30.10 in Calm     93% 0.00 in -RA
06:30 70.6 °F 68.5 °F 30.10 in Calm     93% 0.00 in OVC
06:40 70.7 °F 68.6 °F 30.10 in Calm     93% 0.01 in OVC
06:50 70.7 °F 68.6 °F 30.11 in Calm     93% 0.00 in OVC
06:55 70.6 °F 68.5 °F 30.11 in Calm     93% 0.01 in +RA
07:00 70.6 °F 68.5 °F 30.11 in Calm     93% 0.00 in +RA
07:05 70.5 °F 68.4 °F 30.11 in Calm     93% 0.01 in +RA
07:10 70.5 °F 68.7 °F 30.11 in Calm     94% 0.03 in +RA
07:15 70.5 °F 68.7 °F 30.12 in Calm     94% 0.03 in RA
07:20 70.5 °F 68.7 °F 30.12 in Calm     94% 0.02 in RA
07:25 70.4 °F 68.3 °F 30.12 in Calm     93% 0.03 in RA
07:30 70.3 °F 68.5 °F 30.12 in Calm     94% 0.04 in RA
07:40 70.0 °F 67.9 °F 30.12 in Calm   1.0 mph 93% 0.05 in RA
07:45 69.8 °F 67.7 °F 30.12 in Calm   1.0 mph 93% 0.03 in RA
07:50 69.7 °F 67.9 °F 30.12 in Calm   1.0 mph 94% 0.02 in RA
07:55 69.7 °F 67.9 °F 30.13 in Calm     94% 0.01 in OVC
08:00 69.7 °F 67.9 °F 30.12 in Calm     94% 0.01 in OVC
08:05 69.7 °F 67.9 °F 30.12 in Calm   1.0 mph 94% 0.02 in RA
08:10 69.6 °F 67.8 °F 30.12 in Calm   1.0 mph 94% 0.01 in OVC
08:15 69.6 °F 67.8 °F 30.13 in Calm   1.0 mph 94% 0.01 in +RA
08:20 69.6 °F 67.8 °F 30.13 in Calm   1.0 mph 94% 0.00 in +RA
08:25 69.6 °F 67.8 °F 30.13 in Calm   1.0 mph 94% 0.01 in +RA
08:30 69.6 °F 67.8 °F 30.13 in Calm     94% 0.00 in +RA
08:35 69.6 °F 67.8 °F 30.13 in Calm   1.0 mph 94% 0.00 in +RA
08:40 69.6 °F 67.8 °F 30.14 in Calm   1.0 mph 94% 0.01 in +RA
08:45 69.6 °F 67.8 °F 30.14 in Calm   1.0 mph 94% 0.00 in OVC
08:50 69.6 °F 67.8 °F 30.14 in Calm   1.0 mph 94% 0.00 in OVC
08:55 69.6 °F 67.8 °F 30.14 in Calm   1.0 mph 94% 0.00 in OVC
09:00 69.6 °F 67.8 °F 30.14 in Calm   1.0 mph 94% 0.00 in OVC
09:05 69.6 °F 67.8 °F 30.14 in Calm   1.0 mph 94% 0.00 in -RA
09:10 69.6 °F 67.8 °F 30.14 in Calm   1.0 mph 94% 0.00 in -RA
09:15 69.6 °F 67.8 °F 30.14 in Calm   1.0 mph 94% 0.00 in -RA
09:20 69.7 °F 67.9 °F 30.14 in Calm     94% 0.00 in -RA
09:25 69.8 °F 68.0 °F 30.14 in Calm   1.0 mph 94% 0.00 in -RA
09:30 69.9 °F 68.1 °F 30.14 in Calm   1.0 mph 94% 0.00 in -RA
09:35 70.0 °F 68.2 °F 30.15 in Calm   1.0 mph 94% 0.00 in -RA
09:40 70.1 °F 68.3 °F 30.15 in Calm   1.0 mph 94% 0.00 in -RA
09:45 70.1 °F 68.3 °F 30.15 in Calm   1.0 mph 94% 0.00 in -RA
09:50 70.2 °F 68.4 °F 30.15 in Calm   1.0 mph 94% 0.00 in -RA
09:55 70.2 °F 68.4 °F 30.15 in Calm   1.0 mph 94% 0.00 in -RA
10:00 70.3 °F 68.5 °F 30.15 in Calm   1.0 mph 94% 0.00 in -RA
10:05 70.4 °F 68.6 °F 30.16 in Calm   1.0 mph 94% 0.00 in OVC
10:10 70.4 °F 68.6 °F 30.16 in Calm   1.0 mph 94% 0.00 in OVC
10:15 70.3 °F 68.4 °F 30.16 in West 1.0 mph 2.0 mph 94% 0.00 in OVC
10:20 70.2 °F 68.4 °F 30.16 in Calm   1.0 mph 94% 0.00 in -DZ
10:25 70.3 °F 68.5 °F 30.16 in Calm   1.0 mph 94% 0.00 in -DZ
10:30 70.3 °F 68.5 °F 30.16 in Calm   1.0 mph 94% 0.00 in OVC
10:35 70.5 °F 68.7 °F 30.17 in Calm   1.0 mph 94% 0.00 in OVC
10:40 70.7 °F 68.9 °F 30.17 in Calm     94% 0.00 in OVC
10:45 70.9 °F 69.1 °F 30.17 in Calm     94% 0.00 in OVC
10:50 70.9 °F 69.1 °F 30.17 in Calm     94% 0.00 in OVC
10:55 70.9 °F 69.1 °F 30.17 in Calm   1.0 mph 94% 0.00 in OVC
11:00 70.8 °F 69.0 °F 30.17 in Calm   1.0 mph 94% 0.00 in OVC
11:05 70.8 °F 68.7 °F 30.17 in Calm     93% 0.00 in OVC
11:10 70.9 °F 68.8 °F 30.18 in Calm   1.0 mph 93% 0.00 in OVC
11:15 70.9 °F 68.8 °F 30.18 in Calm     93% 0.00 in OVC
11:20 71.0 °F 68.9 °F 30.17 in Calm   1.0 mph 93% 0.00 in OVC
11:25 71.1 °F 69.0 °F 30.17 in Calm   1.0 mph 93% 0.00 in OVC
11:30 71.1 °F 69.0 °F 30.17 in Calm   1.0 mph 93% 0.00 in OVC
11:35 71.1 °F 69.0 °F 30.17 in Calm   1.0 mph 93% 0.00 in OVC
11:40 70.9 °F 68.4 °F 30.17 in Calm   1.0 mph 92% 0.00 in OVC
11:45 70.5 °F 68.1 °F 30.18 in Calm   1.0 mph 92% 0.00 in OVC
11:50 70.3 °F 67.9 °F 30.18 in Calm     92% 0.00 in OVC
12:05 70.0 °F 67.6 °F 30.18 in Calm   1.0 mph 92% 0.00 in -RA
12:15 69.7 °F 67.3 °F 30.18 in Calm   1.0 mph 92% 0.00 in -RA
12:20 69.6 °F 67.2 °F 30.18 in Calm   1.0 mph 92% 0.00 in -DZ
12:25 69.6 °F 67.5 °F 30.18 in Calm   1.0 mph 93% 0.00 in -DZ
12:30 69.6 °F 67.5 °F 30.18 in Calm   1.0 mph 93% 0.00 in OVC
12:35 69.6 °F 67.5 °F 30.18 in Calm   1.0 mph 93% 0.00 in OVC
12:40 69.6 °F 67.5 °F 30.18 in West 1.0 mph 1.0 mph 93% 0.00 in OVC
12:45 69.9 °F 67.8 °F 30.18 in Calm   1.0 mph 93% 0.00 in OVC
12:50 70.0 °F 67.9 °F 30.18 in Calm   1.0 mph 93% 0.00 in -RA
12:55 70.1 °F 68.0 °F 30.17 in Calm   1.0 mph 93% 0.00 in -RA
13:00 70.3 °F 68.2 °F 30.17 in Calm   1.0 mph 93% 0.00 in -RA
13:05 70.4 °F 68.3 °F 30.17 in Calm   2.0 mph 93% 0.00 in -RA
13:10 70.5 °F 68.4 °F 30.17 in Calm   1.0 mph 93% 0.00 in -RA
13:15 70.8 °F 68.7 °F 30.17 in Calm     93% 0.00 in -RA
13:20 71.0 °F 68.9 °F 30.17 in Calm   1.0 mph 93% 0.00 in -DZ
13:25 71.1 °F 69.0 °F 30.17 in Calm   2.0 mph 93% 0.00 in -DZ
13:30 71.2 °F 68.8 °F 30.16 in Calm   2.0 mph 92% 0.00 in BKN
13:35 71.4 °F 69.0 °F 30.16 in Calm   2.0 mph 92% 0.00 in BKN
13:40 71.8 °F 69.3 °F 30.16 in Calm   1.0 mph 92% 0.00 in BKN
13:45 72.0 °F 69.2 °F 30.16 in Calm   1.0 mph 91% 0.00 in BKN
13:50 72.2 °F 69.1 °F 30.16 in Calm   1.0 mph 90% 0.00 in BKN
13:55 72.2 °F 69.1 °F 30.16 in Calm   2.0 mph 90% 0.00 in BKN
14:00 72.4 °F 69.0 °F 30.16 in Calm   3.0 mph 89% 0.00 in BKN
14:05 72.6 °F 68.9 °F 30.15 in Calm   2.0 mph 88% 0.00 in BKN
14:10 72.8 °F 69.0 °F 30.15 in West 1.0 mph 2.0 mph 88% 0.00 in BKN
14:15 72.8 °F 69.0 °F 30.15 in Calm   1.0 mph 88% 0.00 in BKN
14:20 72.9 °F 68.8 °F 30.15 in West 1.0 mph 2.0 mph 87% 0.00 in BKN
14:25 72.9 °F 68.8 °F 30.15 in Calm   1.0 mph 87% 0.00 in BKN
14:30 72.9 °F 68.8 °F 30.15 in West 1.0 mph 2.0 mph 87% 0.00 in BKN
14:35 73.0 °F 68.9 °F 30.15 in West 1.0 mph 1.0 mph 87% 0.00 in BKN
14:40 73.1 °F 69.0 °F 30.15 in Calm   1.0 mph 87% 0.00 in BKN
14:45 73.1 °F 69.0 °F 30.15 in Calm   1.0 mph 87% 0.00 in BKN
14:50 72.9 °F 68.4 °F 30.15 in Calm   2.0 mph 86% 0.00 in BKN
14:55 72.7 °F 68.6 °F 30.15 in Calm   1.0 mph 87% 0.00 in BKN
15:00 72.7 °F 68.9 °F 30.15 in West 1.0 mph 1.0 mph 88% 0.00 in BKN
15:10 73.1 °F 69.0 °F 30.14 in Calm   2.0 mph 87% 0.00 in BKN
15:15 73.2 °F 69.1 °F 30.14 in Calm   2.0 mph 87% 0.00 in BKN
15:20 73.1 °F 69.0 °F 30.14 in Calm   2.0 mph 87% 0.00 in OVC
15:25 73.2 °F 69.1 °F 30.14 in Calm   2.0 mph 87% 0.00 in OVC
15:30 73.3 °F 68.9 °F 30.14 in Calm   1.0 mph 86% 0.00 in OVC
15:35 73.3 °F 68.9 °F 30.14 in Calm   2.0 mph 86% 0.00 in OVC
15:40 73.4 °F 69.3 °F 30.13 in Calm   3.0 mph 87% 0.00 in OVC
15:45 73.5 °F 69.4 °F 30.13 in Calm   2.0 mph 87% 0.00 in OVC
15:50 73.8 °F 69.4 °F 30.13 in Calm   2.0 mph 86% 0.00 in -RA
15:55 74.3 °F 69.5 °F 30.13 in WNW 1.0 mph 2.0 mph 85% 0.00 in -RA
16:00 74.3 °F 69.1 °F 30.13 in Calm   1.0 mph 84% 0.00 in -RA
16:05 74.1 °F 69.0 °F 30.13 in Calm   2.0 mph 84% 0.00 in OVC
16:10 74.1 °F 69.3 °F 30.13 in Calm   1.0 mph 85% 0.00 in OVC
16:15 74.0 °F 69.2 °F 30.13 in Calm   1.0 mph 85% 0.00 in OVC
16:20 74.1 °F 69.6 °F 30.13 in Calm   1.0 mph 86% 0.00 in OVC
16:25 74.3 °F 69.5 °F 30.13 in Calm   1.0 mph 85% 0.00 in OVC
16:30 74.4 °F 69.9 °F 30.14 in Calm   1.0 mph 86% 0.00 in OVC
16:35 74.3 °F 69.1 °F 30.14 in Calm     84% 0.00 in OVC
16:40 74.2 °F 69.4 °F 30.14 in Calm   1.0 mph 85% 0.00 in OVC
16:45 73.7 °F 68.9 °F 30.13 in Calm   2.0 mph 85% 0.00 in OVC
16:50 73.3 °F 68.5 °F 30.13 in West 1.0 mph 1.0 mph 85% 0.00 in OVC
17:00 72.9 °F 68.5 °F 30.13 in Calm   1.0 mph 86% 0.00 in OVC
17:05 72.8 °F 68.7 °F 30.13 in Calm     87% 0.00 in OVC
17:10 72.7 °F 68.6 °F 30.13 in Calm   1.0 mph 87% 0.00 in OVC
17:15 72.7 °F 68.6 °F 30.13 in Calm     87% 0.00 in OVC
17:20 72.7 °F 68.9 °F 30.13 in Calm     88% 0.00 in OVC
17:25 72.7 °F 68.9 °F 30.13 in Calm     88% 0.00 in OVC
17:30 72.7 °F 68.9 °F 30.13 in Calm     88% 0.00 in OVC
17:35 72.8 °F 69.0 °F 30.13 in Calm     88% 0.00 in OVC
17:40 72.9 °F 69.1 °F 30.13 in Calm     88% 0.00 in OVC
17:45 73.2 °F 69.4 °F 30.13 in Calm     88% 0.00 in OVC
17:50 73.5 °F 69.4 °F 30.12 in Calm     87% 0.00 in OVC
17:55 73.8 °F 69.6 °F 30.12 in Calm     87% 0.00 in OVC
18:00 73.9 °F 69.8 °F 30.13 in Calm     87% 0.00 in OVC
18:10 74.1 °F 69.7 °F 30.12 in Calm     86% 0.00 in OVC
18:15 74.2 °F 69.4 °F 30.12 in Calm   2.0 mph 85% 0.00 in OVC
18:20 74.2 °F 69.4 °F 30.12 in Calm   1.0 mph 85% 0.00 in SCT
18:25 74.2 °F 69.7 °F 30.12 in Calm   1.0 mph 86% 0.00 in SCT
18:30 74.1 °F 69.7 °F 30.13 in Calm   1.0 mph 86% 0.00 in BKN
18:35 74.1 °F 69.6 °F 30.13 in Calm   1.0 mph 86% 0.00 in BKN
18:40 74.0 °F 69.5 °F 30.14 in Calm   1.0 mph 86% 0.00 in BKN
18:50 73.6 °F 69.2 °F 30.13 in WNW 1.0 mph 1.0 mph 86% 0.00 in BKN
19:00 73.5 °F 69.0 °F 30.13 in Calm   1.0 mph 86% 0.00 in BKN
19:05 73.4 °F 69.0 °F 30.13 in Calm   1.0 mph 86% 0.00 in BKN
19:10 73.3 °F 68.9 °F 30.13 in Calm   1.0 mph 86% 0.00 in BKN
19:15 73.2 °F 68.8 °F 30.13 in Calm   1.0 mph 86% 0.00 in BKN
19:20 73.1 °F 69.0 °F 30.13 in Calm   1.0 mph 87% 0.00 in BKN
19:25 73.1 °F 69.0 °F 30.13 in Calm   1.0 mph 87% 0.00 in BKN
19:30 73.1 °F 69.0 °F 30.13 in Calm     87% 0.00 in BKN
19:35 73.1 °F 69.0 °F 30.13 in Calm     87% 0.00 in BKN
19:40 73.1 °F 69.0 °F 30.13 in Calm     87% 0.00 in BKN
19:45 73.0 °F 68.9 °F 30.14 in Calm     87% 0.00 in BKN
19:50 73.0 °F 68.9 °F 30.15 in Calm     87% 0.00 in BKN
19:55 72.9 °F 68.8 °F 30.15 in Calm     87% 0.00 in BKN
20:00 72.8 °F 68.7 °F 30.15 in Calm     87% 0.00 in BKN
20:05 72.7 °F 68.6 °F 30.16 in Calm     87% 0.00 in BKN
20:10 72.6 °F 68.5 °F 30.16 in Calm     87% 0.00 in BKN
20:15 72.5 °F 68.4 °F 30.15 in Calm     87% 0.00 in BKN
20:20 72.4 °F 68.6 °F 30.16 in Calm     88% 0.00 in BKN
20:25 72.3 °F 68.5 °F 30.16 in Calm     88% 0.00 in BKN
20:30 72.2 °F 68.5 °F 30.16 in Calm     88% 0.00 in BKN
20:40 72.2 °F 68.4 °F 30.16 in Calm     88% 0.00 in BKN
20:45 72.1 °F 68.3 °F 30.16 in Calm     88% 0.00 in BKN
20:50 72.0 °F 68.2 °F 30.16 in Calm     88% 0.00 in BKN
20:55 72.0 °F 68.6 °F 30.16 in Calm     89% 0.00 in BKN
21:00 71.9 °F 68.5 °F 30.16 in Calm     89% 0.00 in BKN
21:10 71.9 °F 68.5 °F 30.16 in Calm     89% 0.00 in BKN
21:15 71.8 °F 68.4 °F 30.17 in Calm     89% 0.00 in BKN
21:20 71.8 °F 68.4 °F 30.17 in Calm     89% 0.00 in BKN
21:25 71.7 °F 68.3 °F 30.17 in Calm     89% 0.00 in BKN
21:30 71.6 °F 68.2 °F 30.17 in Calm     89% 0.00 in BKN
21:35 71.6 °F 68.2 °F 30.17 in Calm     89% 0.00 in BKN
21:40 71.6 °F 68.2 °F 30.17 in Calm     89% 0.00 in BKN
21:45 71.6 °F 68.2 °F 30.17 in Calm     89% 0.00 in BKN
21:50 71.5 °F 68.1 °F 30.17 in Calm     89% 0.00 in BKN
21:55 71.5 °F 68.1 °F 30.17 in Calm     89% 0.00 in BKN
22:00 71.5 °F 68.1 °F 30.18 in Calm     89% 0.00 in BKN
22:10 71.4 °F 68.3 °F 30.18 in Calm     90% 0.00 in BKN
22:15 71.4 °F 67.9 °F 30.18 in Calm     89% 0.00 in BKN
22:20 71.3 °F 67.9 °F 30.18 in Calm     89% 0.00 in BKN
22:25 71.3 °F 67.9 °F 30.18 in Calm     89% 0.00 in BKN
22:30 71.3 °F 68.2 °F 30.18 in Calm     90% 0.00 in BKN
22:35 71.2 °F 68.1 °F 30.19 in Calm     90% 0.00 in BKN
22:40 71.2 °F 68.1 °F 30.19 in Calm     90% 0.00 in BKN
22:45 71.1 °F 68.0 °F 30.19 in Calm     90% 0.00 in BKN
22:50 71.1 °F 68.0 °F 30.19 in Calm     90% 0.00 in BKN
22:55 71.1 °F 68.0 °F 30.19 in Calm     90% 0.00 in BKN
23:00 71.1 °F 68.0 °F 30.19 in Calm     90% 0.00 in BKN
23:05 71.0 °F 67.9 °F 30.19 in Calm     90% 0.00 in BKN
23:10 71.1 °F 68.0 °F 30.19 in Calm     90% 0.00 in BKN
23:20 71.0 °F 67.9 °F 30.19 in Calm     90% 0.00 in BKN
23:25 71.0 °F 67.9 °F 30.19 in Calm     90% 0.00 in BKN
23:30 70.9 °F 67.8 °F 30.19 in Calm     90% 0.00 in BKN
23:35 70.9 °F 67.8 °F 30.19 in Calm     90% 0.00 in BKN
23:40 70.9 °F 67.8 °F 30.19 in Calm     90% 0.00 in BKN
23:45 70.9 °F 67.8 °F 30.19 in Calm     90% 0.00 in BKN
23:50 70.9 °F 67.8 °F 30.19 in Calm     90% 0.00 in BKN
23:55 70.8 °F 67.7 °F 30.19 in Calm     90% 0.00 in BKN
Piedmont Bend
Compliments of Weather Underground - 4 mb